ARG1463 SAME-SABE
Flight info
| Callsign | ARG1463 |
|---|---|
| Flight time | 1h 14m |
| Altitude | 37000 |
| Route | KAMUV2C KAMUV UT670 SNT |
| Aircraft | B738/M-SDE2E3FGHIRWXY/LB1 |
Departure
| Time | 2026-04-23 23:39 |
|---|---|
| Airport | Governor Francisco Gabrielli International Airport (SAME) |
Arrival
| Time | 2026-04-24 00:53 |
|---|---|
| Airport | Aeroparque Jorge Newbery (SABE) |
| Time | Latitude | Longitude | Altitude | Speed | Heading |
|---|---|---|---|---|---|
| 2026-04-23 23:07 | -32.82722 | -68.79777 | 2272 ft | 0 kts | 271° |
| 2026-04-23 23:27 | -32.82722 | -68.79770 | 2303 ft | 2 kts | 268° |
| 2026-04-23 23:27 | -32.82722 | -68.79750 | 2300 ft | 2 kts | 265° |
| 2026-04-23 23:27 | -32.82720 | -68.79731 | 2304 ft | 2 kts | 259° |
| 2026-04-23 23:27 | -32.82715 | -68.79712 | 2307 ft | 2 kts | 226° |
| 2026-04-23 23:28 | -32.82702 | -68.79705 | 2306 ft | 1 kts | 181° |
| 2026-04-23 23:28 | -32.82701 | -68.79705 | 2307 ft | 0 kts | 180° |
| 2026-04-23 23:31 | -32.82709 | -68.79705 | 2307 ft | 4 kts | 182° |
| 2026-04-23 23:31 | -32.82746 | -68.79707 | 2312 ft | 6 kts | 182° |
| 2026-04-23 23:32 | -32.82795 | -68.79709 | 2311 ft | 8 kts | 181° |
| 2026-04-23 23:32 | -32.82854 | -68.79709 | 2309 ft | 9 kts | 180° |
| 2026-04-23 23:32 | -32.82921 | -68.79705 | 2309 ft | 10 kts | 151° |
| 2026-04-23 23:32 | -32.82936 | -68.79621 | 2311 ft | 11 kts | 111° |
| 2026-04-23 23:33 | -32.82997 | -68.79555 | 2310 ft | 12 kts | 140° |
| 2026-04-23 23:33 | -32.83075 | -68.79513 | 2310 ft | 13 kts | 181° |
| 2026-04-23 23:33 | -32.83172 | -68.79516 | 2311 ft | 15 kts | 180° |
| 2026-04-23 23:33 | -32.83278 | -68.79517 | 2314 ft | 16 kts | 180° |
| 2026-04-23 23:34 | -32.83391 | -68.79519 | 2315 ft | 16 kts | 181° |
| 2026-04-23 23:34 | -32.83506 | -68.79523 | 2313 ft | 17 kts | 181° |
| 2026-04-23 23:34 | -32.83629 | -68.79525 | 2314 ft | 18 kts | 181° |
| 2026-04-23 23:34 | -32.83759 | -68.79527 | 2315 ft | 19 kts | 181° |
| 2026-04-23 23:35 | -32.83895 | -68.79530 | 2316 ft | 20 kts | 181° |
| 2026-04-23 23:35 | -32.84019 | -68.79531 | 2315 ft | 11 kts | 173° |
| 2026-04-23 23:35 | -32.84082 | -68.79495 | 2313 ft | 9 kts | 159° |
| 2026-04-23 23:35 | -32.84140 | -68.79470 | 2316 ft | 9 kts | 161° |
| 2026-04-23 23:36 | -32.84194 | -68.79448 | 2316 ft | 3 kts | 161° |
| 2026-04-23 23:36 | -32.84201 | -68.79445 | 2317 ft | 0 kts | 161° |
| 2026-04-23 23:37 | -32.84204 | -68.79444 | 2317 ft | 3 kts | 160° |
| 2026-04-23 23:37 | -32.84248 | -68.79424 | 2319 ft | 10 kts | 154° |
| 2026-04-23 23:37 | -32.84325 | -68.79367 | 2322 ft | 15 kts | 148° |
| 2026-04-23 23:38 | -32.84338 | -68.79307 | 2321 ft | 8 kts | 19° |
| 2026-04-23 23:38 | -32.84281 | -68.79306 | 2321 ft | 8 kts | 2° |
| 2026-04-23 23:38 | -32.84226 | -68.79304 | 2320 ft | 8 kts | 0° |
| 2026-04-23 23:38 | -32.84022 | -68.79302 | 2322 ft | 65 kts | 0° |
| 2026-04-23 23:39 | -32.83319 | -68.79292 | 2319 ft | 134 kts | 0° |
| 2026-04-23 23:39 | -32.82194 | -68.79276 | 2422 ft | 181 kts | 0° |
| 2026-04-23 23:39 | -32.80965 | -68.79251 | 3313 ft | 176 kts | 1° |
| 2026-04-23 23:39 | -32.79702 | -68.79227 | 4049 ft | 190 kts | 0° |
| 2026-04-23 23:40 | -32.78374 | -68.79206 | 4909 ft | 190 kts | 1° |
| 2026-04-23 23:40 | -32.77071 | -68.79085 | 5824 ft | 190 kts | 18° |
| 2026-04-23 23:40 | -32.75997 | -68.78132 | 6467 ft | 200 kts | 59° |
| 2026-04-23 23:40 | -32.75508 | -68.76594 | 7165 ft | 204 kts | 77° |
| 2026-04-23 23:41 | -32.75227 | -68.74932 | 7788 ft | 207 kts | 81° |
| 2026-04-23 23:41 | -32.74950 | -68.73220 | 8278 ft | 216 kts | 78° |
| 2026-04-23 23:41 | -32.74632 | -68.71437 | 8796 ft | 225 kts | 79° |
| 2026-04-23 23:41 | -32.74302 | -68.69613 | 9330 ft | 233 kts | 78° |
| 2026-04-23 23:42 | -32.73941 | -68.67688 | 9841 ft | 245 kts | 78° |
| 2026-04-23 23:42 | -32.73540 | -68.65640 | 10152 ft | 265 kts | 77° |
| 2026-04-23 23:42 | -32.73096 | -68.63427 | 10582 ft | 283 kts | 81° |
| 2026-04-23 23:42 | -32.73162 | -68.61048 | 11005 ft | 301 kts | 101° |
| 2026-04-23 23:43 | -32.73646 | -68.58513 | 11234 ft | 327 kts | 104° |
| 2026-04-23 23:43 | -32.74210 | -68.55844 | 11798 ft | 338 kts | 104° |
| 2026-04-23 23:43 | -32.74788 | -68.53110 | 12515 ft | 344 kts | 104° |
| 2026-04-23 23:43 | -32.75357 | -68.50363 | 13260 ft | 350 kts | 104° |
| 2026-04-23 23:44 | -32.75932 | -68.47532 | 13983 ft | 356 kts | 104° |
| 2026-04-23 23:44 | -32.76509 | -68.44647 | 14651 ft | 361 kts | 104° |
| 2026-04-23 23:44 | -32.77089 | -68.41724 | 15366 ft | 366 kts | 103° |
| 2026-04-23 23:44 | -32.77674 | -68.38765 | 16077 ft | 370 kts | 103° |
| 2026-04-23 23:45 | -32.78266 | -68.35761 | 16746 ft | 376 kts | 103° |
| 2026-04-23 23:45 | -32.78866 | -68.32716 | 17415 ft | 381 kts | 103° |
| 2026-04-23 23:45 | -32.79473 | -68.29628 | 18084 ft | 386 kts | 103° |
| 2026-04-23 23:45 | -32.80088 | -68.26496 | 18691 ft | 392 kts | 103° |
| 2026-04-23 23:46 | -32.80702 | -68.23366 | 19272 ft | 396 kts | 103° |
| 2026-04-23 23:46 | -32.81330 | -68.20161 | 19869 ft | 401 kts | 103° |
| 2026-04-23 23:46 | -32.81964 | -68.16916 | 20447 ft | 405 kts | 103° |
| 2026-04-23 23:46 | -32.82605 | -68.13633 | 21025 ft | 410 kts | 103° |
| 2026-04-23 23:47 | -32.83252 | -68.10315 | 21592 ft | 414 kts | 103° |
| 2026-04-23 23:47 | -32.83906 | -68.06960 | 22149 ft | 419 kts | 103° |
| 2026-04-23 23:47 | -32.84565 | -68.03571 | 22706 ft | 423 kts | 103° |
| 2026-04-23 23:47 | -32.85230 | -68.00141 | 23245 ft | 428 kts | 103° |
| 2026-04-23 23:48 | -32.85892 | -67.96726 | 23761 ft | 432 kts | 103° |
| 2026-04-23 23:48 | -32.86568 | -67.93235 | 24228 ft | 435 kts | 103° |
| 2026-04-23 23:48 | -32.87249 | -67.89708 | 24680 ft | 439 kts | 103° |
| 2026-04-23 23:48 | -32.87934 | -67.86158 | 25123 ft | 442 kts | 103° |
| 2026-04-23 23:49 | -32.89317 | -67.78968 | 25993 ft | 449 kts | 103° |
| 2026-04-23 23:49 | -32.90016 | -67.75332 | 26417 ft | 453 kts | 103° |
| 2026-04-23 23:49 | -32.90720 | -67.71659 | 26836 ft | 456 kts | 102° |
| 2026-04-23 23:50 | -32.91420 | -67.68015 | 27251 ft | 460 kts | 103° |
| 2026-04-23 23:50 | -32.92144 | -67.64298 | 27656 ft | 463 kts | 103° |
| 2026-04-23 23:50 | -32.92876 | -67.60555 | 28048 ft | 466 kts | 103° |
| 2026-04-23 23:50 | -32.93615 | -67.56782 | 28438 ft | 470 kts | 103° |
| 2026-04-23 23:51 | -32.94356 | -67.52986 | 28828 ft | 472 kts | 103° |
| 2026-04-23 23:51 | -32.95101 | -67.49160 | 29207 ft | 476 kts | 103° |
| 2026-04-23 23:51 | -32.95847 | -67.45314 | 29563 ft | 479 kts | 103° |
| 2026-04-23 23:51 | -32.96598 | -67.41438 | 29913 ft | 482 kts | 103° |
| 2026-04-23 23:52 | -32.97352 | -67.37536 | 30253 ft | 485 kts | 102° |
| 2026-04-23 23:52 | -32.98098 | -67.33665 | 30530 ft | 488 kts | 102° |
| 2026-04-23 23:52 | -32.98859 | -67.29710 | 30782 ft | 491 kts | 102° |
| 2026-04-23 23:52 | -32.99623 | -67.25733 | 31035 ft | 495 kts | 102° |
| 2026-04-23 23:53 | -33.00392 | -67.21725 | 31304 ft | 497 kts | 102° |
| 2026-04-23 23:53 | -33.01163 | -67.17699 | 31561 ft | 500 kts | 102° |
| 2026-04-23 23:53 | -33.01937 | -67.13648 | 31791 ft | 503 kts | 102° |
| 2026-04-23 23:53 | -33.02715 | -67.09567 | 32031 ft | 506 kts | 102° |
| 2026-04-23 23:54 | -33.03496 | -67.05467 | 32336 ft | 508 kts | 102° |
| 2026-04-23 23:54 | -33.04275 | -67.01366 | 32700 ft | 508 kts | 102° |
| 2026-04-23 23:54 | -33.05043 | -66.97317 | 33037 ft | 508 kts | 102° |
| 2026-04-23 23:54 | -33.05821 | -66.93207 | 33343 ft | 509 kts | 102° |
| 2026-04-23 23:55 | -33.06600 | -66.89087 | 33649 ft | 510 kts | 102° |
| 2026-04-23 23:55 | -33.07378 | -66.84961 | 33970 ft | 510 kts | 102° |
| 2026-04-23 23:55 | -33.08156 | -66.80832 | 34248 ft | 511 kts | 102° |
| 2026-04-23 23:55 | -33.08938 | -66.76691 | 34464 ft | 513 kts | 102° |
| 2026-04-23 23:56 | -33.09724 | -66.72537 | 34666 ft | 515 kts | 102° |
| 2026-04-23 23:56 | -33.10512 | -66.68367 | 34899 ft | 516 kts | 102° |
| 2026-04-23 23:56 | -33.11300 | -66.64193 | 35133 ft | 517 kts | 102° |
| 2026-04-23 23:56 | -33.12077 | -66.60062 | 35344 ft | 518 kts | 101° |
| 2026-04-23 23:57 | -33.12866 | -66.55863 | 35567 ft | 519 kts | 101° |
| 2026-04-23 23:57 | -33.13655 | -66.51652 | 35786 ft | 520 kts | 101° |
| 2026-04-23 23:57 | -33.14443 | -66.47432 | 36001 ft | 522 kts | 101° |
| 2026-04-23 23:57 | -33.15232 | -66.43203 | 36212 ft | 523 kts | 101° |
| 2026-04-23 23:58 | -33.16023 | -66.38955 | 36400 ft | 525 kts | 101° |
| 2026-04-23 23:58 | -33.16814 | -66.34696 | 36605 ft | 526 kts | 101° |
| 2026-04-23 23:58 | -33.17604 | -66.30434 | 36830 ft | 527 kts | 101° |
| 2026-04-23 23:58 | -33.18396 | -66.26157 | 37059 ft | 528 kts | 101° |
| 2026-04-23 23:59 | -33.19974 | -66.17601 | 37119 ft | 535 kts | 101° |
| 2026-04-23 23:59 | -33.21564 | -66.08961 | 37106 ft | 529 kts | 101° |
| 2026-04-24 00:00 | -33.23130 | -66.00421 | 37111 ft | 525 kts | 101° |
| 2026-04-24 00:00 | -33.24685 | -65.91899 | 37105 ft | 525 kts | 101° |
| 2026-04-24 00:01 | -33.26223 | -65.83433 | 37102 ft | 525 kts | 101° |
| 2026-04-24 00:01 | -33.27768 | -65.74896 | 37095 ft | 526 kts | 101° |
| 2026-04-24 00:02 | -33.29310 | -65.66342 | 37099 ft | 527 kts | 101° |
| 2026-04-24 00:02 | -33.30848 | -65.57775 | 37107 ft | 528 kts | 101° |
| 2026-04-24 00:03 | -33.32374 | -65.49236 | 37097 ft | 529 kts | 101° |
| 2026-04-24 00:03 | -33.33908 | -65.40617 | 37098 ft | 530 kts | 101° |
| 2026-04-24 00:04 | -33.35439 | -65.31981 | 37093 ft | 531 kts | 101° |
| 2026-04-24 00:04 | -33.36965 | -65.23337 | 37095 ft | 531 kts | 101° |
| 2026-04-24 00:05 | -33.38486 | -65.14682 | 37094 ft | 532 kts | 101° |
| 2026-04-24 00:05 | -33.39991 | -65.06078 | 37094 ft | 532 kts | 101° |
| 2026-04-24 00:06 | -33.41501 | -64.97414 | 37103 ft | 532 kts | 101° |
| 2026-04-24 00:06 | -33.43003 | -64.88752 | 37096 ft | 531 kts | 100° |
| 2026-04-24 00:07 | -33.44499 | -64.80092 | 37100 ft | 531 kts | 100° |
| 2026-04-24 00:07 | -33.45978 | -64.71493 | 37102 ft | 530 kts | 100° |
| 2026-04-24 00:08 | -33.47458 | -64.62847 | 37102 ft | 530 kts | 100° |
| 2026-04-24 00:08 | -33.48933 | -64.54197 | 37105 ft | 530 kts | 100° |
| 2026-04-24 00:09 | -33.50352 | -64.45543 | 37106 ft | 529 kts | 99° |
| 2026-04-24 00:09 | -33.51723 | -64.36948 | 37111 ft | 529 kts | 99° |
| 2026-04-24 00:10 | -33.53102 | -64.28287 | 37110 ft | 529 kts | 99° |
| 2026-04-24 00:10 | -33.54482 | -64.19628 | 37111 ft | 529 kts | 99° |
| 2026-04-24 00:11 | -33.55859 | -64.10967 | 37112 ft | 529 kts | 99° |
| 2026-04-24 00:11 | -33.57230 | -64.02295 | 37115 ft | 530 kts | 99° |
| 2026-04-24 00:12 | -33.58586 | -63.93675 | 37117 ft | 530 kts | 99° |
| 2026-04-24 00:12 | -33.59946 | -63.84990 | 37120 ft | 530 kts | 99° |
| 2026-04-24 00:13 | -33.61301 | -63.76299 | 37119 ft | 530 kts | 99° |
| 2026-04-24 00:13 | -33.62652 | -63.67590 | 37121 ft | 531 kts | 99° |
| 2026-04-24 00:14 | -33.63986 | -63.58945 | 37118 ft | 531 kts | 99° |
| 2026-04-24 00:14 | -33.65325 | -63.50229 | 37124 ft | 531 kts | 98° |
| 2026-04-24 00:15 | -33.66657 | -63.41510 | 37121 ft | 531 kts | 98° |
| 2026-04-24 00:15 | -33.67985 | -63.32784 | 37116 ft | 531 kts | 98° |
| 2026-04-24 00:16 | -33.69297 | -63.24111 | 37120 ft | 531 kts | 98° |
| 2026-04-24 00:16 | -33.70612 | -63.15382 | 37121 ft | 531 kts | 98° |
| 2026-04-24 00:17 | -33.71920 | -63.06655 | 37121 ft | 531 kts | 98° |
| 2026-04-24 00:17 | -33.73230 | -62.97931 | 37123 ft | 531 kts | 98° |
| 2026-04-24 00:18 | -33.74573 | -62.89214 | 37128 ft | 531 kts | 98° |
| 2026-04-24 00:18 | -33.75906 | -62.80551 | 37130 ft | 530 kts | 98° |
| 2026-04-24 00:19 | -33.77233 | -62.71838 | 37130 ft | 530 kts | 98° |
| 2026-04-24 00:19 | -33.78554 | -62.63118 | 37130 ft | 530 kts | 98° |
| 2026-04-24 00:20 | -33.79865 | -62.54401 | 37134 ft | 530 kts | 98° |
| 2026-04-24 00:20 | -33.81169 | -62.45684 | 37130 ft | 530 kts | 98° |
| 2026-04-24 00:21 | -33.82467 | -62.36964 | 37130 ft | 529 kts | 98° |
| 2026-04-24 00:21 | -33.83749 | -62.28304 | 37134 ft | 529 kts | 98° |
| 2026-04-24 00:22 | -33.85034 | -62.19588 | 37134 ft | 529 kts | 98° |
| 2026-04-24 00:22 | -33.86312 | -62.10870 | 37135 ft | 529 kts | 98° |
| 2026-04-24 00:23 | -33.87586 | -62.02142 | 37133 ft | 529 kts | 98° |
| 2026-04-24 00:23 | -33.88852 | -61.93417 | 37137 ft | 530 kts | 98° |
| 2026-04-24 00:24 | -33.90105 | -61.84742 | 37138 ft | 530 kts | 98° |
| 2026-04-24 00:24 | -33.91360 | -61.76003 | 37143 ft | 530 kts | 97° |
| 2026-04-24 00:25 | -33.92611 | -61.67254 | 37141 ft | 530 kts | 97° |
| 2026-04-24 00:25 | -33.93854 | -61.58501 | 37146 ft | 531 kts | 98° |
| 2026-04-24 00:26 | -33.95142 | -61.49752 | 37142 ft | 531 kts | 98° |
| 2026-04-24 00:26 | -33.96443 | -61.41036 | 36749 ft | 536 kts | 98° |
| 2026-04-24 00:27 | -33.97098 | -61.36619 | 36225 ft | 534 kts | 98° |
| 2026-04-24 00:27 | -33.97747 | -61.32219 | 35646 ft | 534 kts | 98° |
| 2026-04-24 00:27 | -33.98393 | -61.27816 | 35045 ft | 534 kts | 97° |
| 2026-04-24 00:27 | -33.99036 | -61.23410 | 34458 ft | 533 kts | 97° |
| 2026-04-24 00:28 | -33.99673 | -61.19037 | 33996 ft | 529 kts | 97° |
| 2026-04-24 00:28 | -34.00306 | -61.14683 | 33478 ft | 524 kts | 97° |
| 2026-04-24 00:28 | -34.00929 | -61.10380 | 33012 ft | 519 kts | 97° |
| 2026-04-24 00:28 | -34.01547 | -61.06107 | 32546 ft | 514 kts | 97° |
| 2026-04-24 00:29 | -34.02156 | -61.01879 | 32098 ft | 510 kts | 97° |
| 2026-04-24 00:29 | -34.02758 | -60.97692 | 31659 ft | 505 kts | 97° |
| 2026-04-24 00:29 | -34.03346 | -60.93592 | 31232 ft | 501 kts | 96° |
| 2026-04-24 00:29 | -34.03934 | -60.89477 | 30802 ft | 497 kts | 96° |
| 2026-04-24 00:30 | -34.04517 | -60.85392 | 30379 ft | 493 kts | 96° |
| 2026-04-24 00:30 | -34.05094 | -60.81338 | 29908 ft | 489 kts | 96° |
| 2026-04-24 00:30 | -34.05665 | -60.77316 | 29421 ft | 484 kts | 96° |
| 2026-04-24 00:30 | -34.06228 | -60.73335 | 28977 ft | 479 kts | 96° |
| 2026-04-24 00:31 | -34.06785 | -60.69395 | 28525 ft | 474 kts | 97° |
| 2026-04-24 00:31 | -34.07334 | -60.65496 | 28085 ft | 470 kts | 97° |
| 2026-04-24 00:31 | -34.07877 | -60.61630 | 27647 ft | 466 kts | 97° |
| 2026-04-24 00:31 | -34.08408 | -60.57845 | 27219 ft | 462 kts | 97° |
| 2026-04-24 00:32 | -34.08940 | -60.54042 | 26791 ft | 458 kts | 97° |
| 2026-04-24 00:32 | -34.09466 | -60.50267 | 26369 ft | 455 kts | 97° |
| 2026-04-24 00:32 | -34.09988 | -60.46519 | 25948 ft | 451 kts | 98° |
| 2026-04-24 00:32 | -34.10505 | -60.42795 | 25531 ft | 448 kts | 98° |
| 2026-04-24 00:33 | -34.11017 | -60.39099 | 25114 ft | 446 kts | 98° |
| 2026-04-24 00:33 | -34.11526 | -60.35421 | 24694 ft | 443 kts | 98° |
| 2026-04-24 00:33 | -34.12031 | -60.31760 | 24261 ft | 441 kts | 98° |
| 2026-04-24 00:33 | -34.12526 | -60.28164 | 23840 ft | 439 kts | 99° |
| 2026-04-24 00:34 | -34.13024 | -60.24535 | 23350 ft | 437 kts | 99° |
| 2026-04-24 00:34 | -34.13519 | -60.20925 | 22908 ft | 434 kts | 99° |
| 2026-04-24 00:34 | -34.14009 | -60.17350 | 22477 ft | 430 kts | 99° |
| 2026-04-24 00:34 | -34.14492 | -60.13807 | 22060 ft | 426 kts | 99° |
| 2026-04-24 00:35 | -34.14971 | -60.10292 | 21649 ft | 422 kts | 99° |
| 2026-04-24 00:35 | -34.15444 | -60.06815 | 21234 ft | 418 kts | 99° |
| 2026-04-24 00:35 | -34.15911 | -60.03367 | 20839 ft | 414 kts | 99° |
| 2026-04-24 00:35 | -34.16374 | -59.99946 | 20435 ft | 411 kts | 99° |
| 2026-04-24 00:36 | -34.16831 | -59.96558 | 20037 ft | 407 kts | 99° |
| 2026-04-24 00:36 | -34.17284 | -59.93200 | 19640 ft | 404 kts | 99° |
| 2026-04-24 00:36 | -34.17726 | -59.89911 | 19261 ft | 400 kts | 99° |
| 2026-04-24 00:36 | -34.18169 | -59.86611 | 18857 ft | 397 kts | 99° |
| 2026-04-24 00:37 | -34.18607 | -59.83333 | 18465 ft | 394 kts | 99° |
| 2026-04-24 00:37 | -34.19042 | -59.80081 | 18019 ft | 390 kts | 99° |
| 2026-04-24 00:37 | -34.19471 | -59.76861 | 17594 ft | 387 kts | 99° |
| 2026-04-24 00:37 | -34.19896 | -59.73672 | 17187 ft | 382 kts | 99° |
| 2026-04-24 00:38 | -34.20315 | -59.70515 | 16789 ft | 378 kts | 99° |
| 2026-04-24 00:38 | -34.20728 | -59.67395 | 16406 ft | 374 kts | 99° |
| 2026-04-24 00:38 | -34.21137 | -59.64307 | 16021 ft | 370 kts | 99° |
| 2026-04-24 00:38 | -34.21540 | -59.61252 | 15634 ft | 367 kts | 99° |
| 2026-04-24 00:39 | -34.21938 | -59.58227 | 15264 ft | 363 kts | 99° |
| 2026-04-24 00:39 | -34.22333 | -59.55225 | 14896 ft | 360 kts | 99° |
| 2026-04-24 00:39 | -34.22723 | -59.52253 | 14513 ft | 357 kts | 99° |
| 2026-04-24 00:39 | -34.23104 | -59.49347 | 14142 ft | 354 kts | 99° |
| 2026-04-24 00:40 | -34.23672 | -59.46448 | 13533 ft | 356 kts | 107° |
| 2026-04-24 00:40 | -34.24407 | -59.43597 | 13096 ft | 353 kts | 108° |
| 2026-04-24 00:40 | -34.25165 | -59.40791 | 12684 ft | 350 kts | 109° |
| 2026-04-24 00:40 | -34.25913 | -59.38022 | 12294 ft | 346 kts | 108° |
| 2026-04-24 00:41 | -34.26651 | -59.35261 | 11911 ft | 342 kts | 108° |
| 2026-04-24 00:41 | -34.27370 | -59.32534 | 11535 ft | 339 kts | 108° |
| 2026-04-24 00:41 | -34.28074 | -59.29834 | 11159 ft | 335 kts | 108° |
| 2026-04-24 00:41 | -34.28768 | -59.27156 | 10789 ft | 332 kts | 108° |
| 2026-04-24 00:42 | -34.29450 | -59.24508 | 10507 ft | 326 kts | 107° |
| 2026-04-24 00:42 | -34.30108 | -59.21947 | 10202 ft | 322 kts | 107° |
| 2026-04-24 00:42 | -34.30767 | -59.19377 | 9905 ft | 318 kts | 107° |
| 2026-04-24 00:42 | -34.31420 | -59.16828 | 9593 ft | 317 kts | 107° |
| 2026-04-24 00:43 | -34.32070 | -59.14283 | 9289 ft | 316 kts | 107° |
| 2026-04-24 00:43 | -34.32718 | -59.11744 | 8987 ft | 315 kts | 107° |
| 2026-04-24 00:43 | -34.33363 | -59.09217 | 8691 ft | 315 kts | 107° |
| 2026-04-24 00:43 | -34.34008 | -59.06687 | 8390 ft | 314 kts | 107° |
| 2026-04-24 00:44 | -34.34650 | -59.04165 | 8092 ft | 313 kts | 107° |
| 2026-04-24 00:44 | -34.35289 | -59.01652 | 7803 ft | 312 kts | 107° |
| 2026-04-24 00:44 | -34.35924 | -58.99151 | 7514 ft | 310 kts | 107° |
| 2026-04-24 00:44 | -34.36556 | -58.96660 | 7221 ft | 309 kts | 107° |
| 2026-04-24 00:45 | -34.37177 | -58.94213 | 6942 ft | 307 kts | 107° |
| 2026-04-24 00:45 | -34.37802 | -58.91745 | 6659 ft | 306 kts | 107° |
| 2026-04-24 00:45 | -34.38423 | -58.89293 | 6362 ft | 304 kts | 107° |
| 2026-04-24 00:45 | -34.39040 | -58.86851 | 6058 ft | 302 kts | 107° |
| 2026-04-24 00:46 | -34.39653 | -58.84426 | 5762 ft | 301 kts | 107° |
| 2026-04-24 00:46 | -34.40262 | -58.82014 | 5464 ft | 298 kts | 107° |
| 2026-04-24 00:46 | -34.40859 | -58.79647 | 5159 ft | 288 kts | 107° |
| 2026-04-24 00:46 | -34.41432 | -58.77370 | 4849 ft | 277 kts | 107° |
| 2026-04-24 00:47 | -34.41976 | -58.75211 | 4541 ft | 267 kts | 107° |
| 2026-04-24 00:47 | -34.42508 | -58.73096 | 4234 ft | 258 kts | 107° |
| 2026-04-24 00:47 | -34.43023 | -58.71046 | 3932 ft | 251 kts | 106° |
| 2026-04-24 00:47 | -34.43524 | -58.69052 | 3628 ft | 244 kts | 106° |
| 2026-04-24 00:48 | -34.44012 | -58.67110 | 3331 ft | 238 kts | 106° |
| 2026-04-24 00:48 | -34.44486 | -58.65218 | 3025 ft | 232 kts | 106° |
| 2026-04-24 00:48 | -34.44951 | -58.63364 | 2724 ft | 227 kts | 105° |
| 2026-04-24 00:48 | -34.45405 | -58.61550 | 2461 ft | 221 kts | 105° |
| 2026-04-24 00:49 | -34.45843 | -58.59811 | 2292 ft | 211 kts | 107° |
| 2026-04-24 00:49 | -34.46524 | -58.58280 | 2127 ft | 203 kts | 124° |
| 2026-04-24 00:49 | -34.47329 | -58.56920 | 2010 ft | 194 kts | 122° |
| 2026-04-24 00:49 | -34.48068 | -58.55617 | 1864 ft | 186 kts | 122° |
| 2026-04-24 00:50 | -34.48776 | -58.54360 | 1738 ft | 177 kts | 122° |
| 2026-04-24 00:50 | -34.49465 | -58.53131 | 1698 ft | 170 kts | 122° |
| 2026-04-24 00:50 | -34.50108 | -58.51987 | 1691 ft | 157 kts | 121° |
| 2026-04-24 00:50 | -34.50707 | -58.50949 | 1693 ft | 147 kts | 122° |
| 2026-04-24 00:51 | -34.51304 | -58.49894 | 1477 ft | 151 kts | 121° |
| 2026-04-24 00:51 | -34.51891 | -58.48837 | 1287 ft | 150 kts | 121° |
| 2026-04-24 00:51 | -34.52474 | -58.47787 | 1081 ft | 150 kts | 121° |
| 2026-04-24 00:51 | -34.53049 | -58.46749 | 880 ft | 147 kts | 121° |
| 2026-04-24 00:52 | -34.53621 | -58.45718 | 676 ft | 148 kts | 121° |
| 2026-04-24 00:52 | -34.54194 | -58.44687 | 491 ft | 148 kts | 122° |
| 2026-04-24 00:52 | -34.54765 | -58.43658 | 293 ft | 148 kts | 121° |
| 2026-04-24 00:52 | -34.55341 | -58.42621 | 90 ft | 148 kts | 122° |
| 2026-04-24 00:53 | -34.55881 | -58.41652 | 25 ft | 118 kts | 123° |
| 2026-04-24 00:53 | -34.56220 | -58.41043 | 27 ft | 56 kts | 124° |
| 2026-04-24 00:53 | -34.56399 | -58.40724 | 24 ft | 28 kts | 124° |
| 2026-04-24 00:53 | -34.56368 | -58.40644 | 28 ft | 16 kts | 336° |
| 2026-04-24 00:54 | -34.56280 | -58.40727 | 26 ft | 16 kts | 316° |
| 2026-04-24 00:54 | -34.56209 | -58.40810 | 28 ft | 13 kts | 316° |
| 2026-04-24 00:54 | -34.56161 | -58.40895 | 27 ft | 13 kts | 286° |
| 2026-04-24 00:54 | -34.56117 | -58.40983 | 26 ft | 11 kts | 309° |
| 2026-04-24 00:55 | -34.56069 | -58.41057 | 26 ft | 11 kts | 304° |
| 2026-04-24 00:55 | -34.56025 | -58.41131 | 28 ft | 11 kts | 307° |
| 2026-04-24 00:55 | -34.55981 | -58.41201 | 29 ft | 10 kts | 307° |
| 2026-04-24 00:55 | -34.55944 | -58.41263 | 28 ft | 9 kts | 305° |
| 2026-04-24 00:56 | -34.55899 | -58.41297 | 27 ft | 9 kts | 14° |
| 2026-04-24 00:56 | -34.55845 | -58.41275 | 30 ft | 8 kts | 347° |
| 2026-04-24 00:56 | -34.55810 | -58.41328 | 29 ft | 8 kts | 298° |
| 2026-04-24 00:56 | -34.55780 | -58.41335 | 28 ft | 2 kts | 36° |
| 2026-04-24 00:57 | -34.55770 | -58.41326 | 28 ft | 2 kts | 35° |
| 2026-04-24 00:57 | -34.55767 | -58.41324 | 28 ft | 0 kts | 35° |